Time;durP1;ratioP1;P1;durP2;ratioP2;P2;SDS_P1;SDS_P2;PMS_P1;PMS_P2;Temp;Humidity;BMP_temperature;BMP_pressure;BME280_temperature;BME280_humidity;BME280_pressure;Samples;Min_cycle;Max_cycle;Signal;HPM_P1;HPM_P2
2021/10/04 00:00:34;;;;;;;27.20;14.65;;;;;;;8.13;60.71;101632.02;126077;1099;104150;-80
2021/10/04 00:03:12;;;;;;;33.63;15.97;;;;;;;8.10;60.72;101633.63;126316;1099;104159;-80
2021/10/04 00:05:43;;;;;;;32.03;15.53;;;;;;;8.08;61.00;101634.33;126277;1099;104258;-81
2021/10/04 00:08:14;;;;;;;34.77;16.10;;;;;;;8.06;61.33;101633.34;126310;1099;104275;-80
2021/10/04 00:10:45;;;;;;;29.77;15.37;;;;;;;8.05;60.91;101628.91;126326;1099;104262;-80
2021/10/04 00:13:16;;;;;;;31.03;17.33;;;;;;;8.03;61.06;101630.53;126302;1099;104274;-81
2021/10/04 00:15:47;;;;;;;38.37;17.43;;;;;;;7.98;61.56;101637.15;126270;1098;104149;-80
2021/10/04 00:18:18;;;;;;;33.57;17.60;;;;;;;7.91;61.50;101638.47;126341;1098;104261;-80
2021/10/04 00:20:49;;;;;;;33.97;18.40;;;;;;;7.81;61.28;101644.82;126388;1099;104175;-81
2021/10/04 00:23:21;;;;;;;38.07;17.90;;;;;;;7.69;61.51;101638.80;126326;1099;104287;-81
2021/10/04 00:25:52;;;;;;;31.90;17.23;;;;;;;7.58;61.75;101645.03;126293;1099;104312;-81
2021/10/04 00:28:25;;;;;;;33.30;15.70;;;;;;;7.47;62.51;101642.59;126334;1099;104249;-80
2021/10/04 00:30:56;;;;;;;38.00;15.70;;;;;;;7.33;62.36;101653.84;126302;1099;104219;-80
2021/10/04 00:33:27;;;;;;;34.07;15.90;;;;;;;7.22;62.08;101649.61;126259;1099;104629;-81
2021/10/04 00:35:58;;;;;;;34.10;16.47;;;;;;;7.15;63.01;101646.58;126272;1099;104271;-80
2021/10/04 00:38:29;;;;;;;33.80;15.70;;;;;;;7.09;62.95;101646.16;126320;1099;104312;-80
2021/10/04 00:41:02;;;;;;;31.23;15.27;;;;;;;7.02;62.37;101643.92;126330;1099;104178;-81
2021/10/04 00:43:33;;;;;;;32.23;15.93;;;;;;;6.98;63.01;101634.06;126344;1098;104248;-80
2021/10/04 00:46:04;;;;;;;28.20;15.37;;;;;;;6.97;62.70;101632.28;126313;1099;104149;-79
2021/10/04 00:48:35;;;;;;;28.83;14.87;;;;;;;6.99;62.53;101646.32;126297;1099;104190;-80
2021/10/04 00:51:09;;;;;;;29.43;14.80;;;;;;;6.95;63.04;101649.52;126294;1098;104166;-79
2021/10/04 00:53:42;;;;;;;30.50;15.00;;;;;;;6.90;63.07;101645.69;126349;1099;104188;-80
2021/10/04 00:56:14;;;;;;;31.00;14.83;;;;;;;6.82;63.33;101643.48;126255;1099;104154;-82
2021/10/04 00:58:45;;;;;;;34.03;15.43;;;;;;;6.80;63.03;101642.44;126364;1099;104161;-80
2021/10/04 01:01:16;;;;;;;28.03;15.00;;;;;;;6.74;63.35;101643.73;126330;1099;104198;-80
2021/10/04 01:03:47;;;;;;;29.40;15.20;;;;;;;6.68;63.55;101638.98;125379;1099;104149;-81
2021/10/04 01:06:18;;;;;;;30.13;14.67;;;;;;;6.68;63.62;101638.98;126295;1099;104242;-81
2021/10/04 01:08:48;;;;;;;29.07;15.50;;;;;;;6.66;63.59;101635.38;126315;1099;104162;-80
2021/10/04 01:11:21;;;;;;;29.93;14.67;;;;;;;6.61;63.96;101631.55;126386;1099;104672;-81
2021/10/04 01:13:56;;;;;;;27.07;14.13;;;;;;;6.55;63.84;101637.23;126345;1099;104262;-81
2021/10/04 01:16:29;;;;;;;28.30;14.43;;;;;;;6.51;64.76;101636.91;126298;1099;104150;-81
2021/10/04 01:19:04;;;;;;;30.40;14.65;;;;;;;6.42;64.07;101645.91;126342;1099;104169;-81
2021/10/04 01:21:38;;;;;;;30.00;14.87;;;;;;;6.38;64.28;101640.36;126311;1099;104149;-80
2021/10/04 01:24:14;;;;;;;29.95;14.90;;;;;;;6.32;64.40;101640.82;126321;1099;104270;-80
2021/10/04 01:26:46;;;;;;;32.23;14.07;;;;;;;6.26;64.46;101641.31;126287;1099;104174;-81
2021/10/04 01:29:20;;;;;;;30.60;14.57;;;;;;;6.24;64.40;101641.98;126309;1098;104270;-80
2021/10/04 01:31:52;;;;;;;26.40;14.50;;;;;;;6.25;64.39;101641.20;126284;1099;104409;-80
2021/10/04 01:34:24;;;;;;;26.07;13.67;;;;;;;6.25;64.42;101634.27;126323;1099;104178;-80
2021/10/04 01:36:55;;;;;;;26.17;14.63;;;;;;;6.23;64.38;101641.09;126299;1099;104618;-82
2021/10/04 01:39:26;;;;;;;27.63;15.50;;;;;;;6.22;64.69;101631.45;126321;1098;104195;-80
2021/10/04 01:41:58;;;;;;;27.20;15.23;;;;;;;6.23;64.60;101633.27;126229;1099;104158;-80
2021/10/04 01:44:32;;;;;;;31.37;15.37;;;;;;;6.25;64.59;101626.45;126333;1098;104361;-80
2021/10/04 01:47:04;;;;;;;30.43;14.40;;;;;;;6.28;64.75;101630.99;126280;1099;104152;-80
2021/10/04 01:49:35;;;;;;;27.80;15.13;;;;;;;6.30;64.76;101631.99;126365;1099;104178;-81
2021/10/04 01:52:07;;;;;;;29.33;15.10;;;;;;;6.32;64.74;101617.36;126259;1099;104194;-80
2021/10/04 01:54:38;;;;;;;27.73;14.43;;;;;;;6.34;64.79;101618.36;126300;1099;104248;-81
2021/10/04 01:57:11;;;;;;;30.77;15.23;;;;;;;6.34;64.73;101614.86;126293;1099;103684;-80
2021/10/04 01:59:43;;;;;;;29.70;14.77;;;;;;;6.32;64.87;101611.25;126300;1098;104172;-80
2021/10/04 02:02:16;;;;;;;28.50;14.60;;;;;;;6.31;64.89;101605.14;126366;1099;104172;-80
2021/10/04 02:04:47;;;;;;;29.40;14.67;;;;;;;6.32;65.07;101606.93;126314;1099;104140;-80
2021/10/04 02:07:18;;;;;;;29.20;15.13;;;;;;;6.38;64.96;101602.15;126262;1099;104261;-81
2021/10/04 02:09:48;;;;;;;28.87;15.10;;;;;;;6.44;65.11;101597.36;126320;1099;104222;-81
2021/10/04 02:12:19;;;;;;;30.40;15.17;;;;;;;6.48;65.22;101599.40;126359;1099;104249;-81
2021/10/04 02:14:52;;;;;;;31.45;16.30;;;;;;;6.46;65.12;101600.97;126333;1099;104280;-80
2021/10/04 02:17:26;;;;;;;31.30;15.00;;;;;;;6.49;65.10;101600.30;126283;1097;104162;-80
2021/10/04 02:19:56;;;;;;;30.83;15.07;;;;;;;6.51;65.14;101598.69;126319;1099;105187;-81
2021/10/04 02:22:27;;;;;;;32.00;15.03;;;;;;;6.57;65.47;101598.22;126317;1099;104264;-80
2021/10/04 02:24:58;;;;;;;28.67;14.93;;;;;;;6.60;65.25;101603.65;126338;1099;104163;-80
2021/10/04 02:27:29;;;;;;;31.50;15.93;;;;;;;6.62;65.33;101602.04;126288;1099;104201;-80
2021/10/04 02:30:00;;;;;;;30.97;16.20;;;;;;;6.64;65.30;101616.11;126324;1099;104184;-79
2021/10/04 02:32:34;;;;;;;32.37;15.63;;;;;;;6.65;65.50;101620.52;126304;1098;104278;-80
2021/10/04 02:35:06;;;;;;;29.83;15.77;;;;;;;6.67;65.47;101618.94;126357;1099;104264;-81
2021/10/04 02:37:37;;;;;;;30.67;14.57;;;;;;;6.67;65.54;101618.94;126317;1098;104168;-81
2021/10/04 02:40:10;;;;;;;31.30;16.50;;;;;;;6.66;65.41;101620.62;126353;1099;104268;-81
2021/10/04 02:42:43;;;;;;;31.55;15.65;;;;;;;6.67;65.37;101613.72;126300;1099;104175;-81
2021/10/04 02:45:19;;;;;;;29.57;15.17;;;;;;;6.65;65.46;101615.30;126333;1099;104159;-81
2021/10/04 02:47:52;;;;;;;28.53;14.87;;;;;;;6.66;65.79;101619.72;126296;1099;104146;-79
2021/10/04 02:50:26;;;;;;;28.90;14.90;;;;;;;6.66;65.66;101611.90;126311;1099;104160;-80
2021/10/04 02:52:57;;;;;;;29.17;14.70;;;;;;;6.63;65.70;101614.30;126351;1099;104211;-80
2021/10/04 02:55:28;;;;;;;31.13;16.17;;;;;;;6.62;65.69;101622.91;126336;1099;104137;-81
2021/10/04 02:57:59;;;;;;;29.97;14.90;;;;;;;6.66;65.95;101623.23;126206;1099;104242;-81
2021/10/04 03:00:31;;;;;;;33.53;15.40;;;;;;;6.71;65.76;101618.33;126329;1097;104195;-81
2021/10/04 03:03:02;;;;;;;30.47;14.87;;;;;;;6.74;65.83;101613.33;126309;1099;104229;-81
2021/10/04 03:05:33;;;;;;;26.00;15.03;;;;;;;6.76;65.73;101613.43;126352;1099;104290;-80
2021/10/04 03:08:05;;;;;;;30.60;15.85;;;;;;;6.78;65.77;101615.36;126250;1098;101997;-81
2021/10/04 03:10:37;;;;;;;29.10;14.93;;;;;;;6.79;65.83;101611.96;126293;1099;104146;-81
2021/10/04 03:16:06;;;;;;;31.07;15.50;;;;;;;6.82;65.87;101622.61;125538;1099;104197;-80
2021/10/04 03:18:44;;;;;;;30.00;15.48;;;;;;;6.81;65.64;101626.00;126316;1099;104172;-81
2021/10/04 03:21:15;;;;;;;30.67;15.37;;;;;;;6.80;65.83;101618.97;126310;1099;104146;-80
2021/10/04 03:23:46;;;;;;;28.43;15.33;;;;;;;6.80;66.07;101618.97;126253;1099;104729;-80
2021/10/04 03:26:16;;;;;;;34.10;15.77;;;;;;;6.80;66.17;101621.57;126359;1099;104140;-80
2021/10/04 03:28:47;;;;;;;33.93;14.93;;;;;;;6.76;65.91;101639.52;126296;1097;104172;-80
2021/10/04 03:31:18;;;;;;;31.75;15.75;;;;;;;6.72;65.91;101629.69;126367;1099;104191;-80
2021/10/04 03:33:48;;;;;;;36.37;15.37;;;;;;;6.66;65.87;101631.05;126331;1099;104342;-81
2021/10/04 03:36:19;;;;;;;37.23;16.80;;;;;;;6.67;66.21;101626.77;126270;1099;104191;-81
2021/10/04 03:38:50;;;;;;;32.90;15.27;;;;;;;6.70;66.05;101629.58;126329;1096;104182;-80
2021/10/04 03:41:21;;;;;;;40.27;15.23;;;;;;;6.69;66.32;101627.77;126350;1099;104217;-81
2021/10/04 03:43:52;;;;;;;36.23;14.73;;;;;;;6.72;66.38;101633.19;126380;1099;104145;-81
2021/10/04 03:46:23;;;;;;;31.00;15.37;;;;;;;6.74;66.29;101618.54;126283;1099;104342;-81
2021/10/04 03:48:54;;;;;;;33.33;15.57;;;;;;;6.76;66.28;101619.58;126253;1099;104221;-81
2021/10/04 03:51:25;;;;;;;32.43;15.60;;;;;;;6.80;66.47;101636.33;126301;1099;104137;-81
2021/10/04 03:53:56;;;;;;;31.67;15.70;;;;;;;6.80;66.43;101634.62;126272;1099;104309;-80
2021/10/04 03:56:27;;;;;;;30.07;15.40;;;;;;;6.74;66.53;101631.58;126317;1099;104151;-81
2021/10/04 03:58:58;;;;;;;28.70;14.47;;;;;;;6.67;66.29;101634.59;126210;1099;104226;-81
2021/10/04 04:01:34;;;;;;;28.87;14.50;;;;;;;6.60;66.48;101634.95;126263;1098;104567;-81
2021/10/04 04:04:05;;;;;;;27.60;15.43;;;;;;;6.63;66.44;101637.77;126258;1099;104204;-81
2021/10/04 04:06:36;;;;;;;29.93;14.87;;;;;;;6.61;66.30;101636.77;126271;1099;104152;-81
2021/10/04 04:09:07;;;;;;;33.80;14.63;;;;;;;6.56;66.46;101633.84;126256;1098;104300;-81
2021/10/04 04:11:38;;;;;;;27.97;13.77;;;;;;;6.55;66.71;101641.55;126266;1099;104281;-81
2021/10/04 04:14:09;;;;;;;34.53;15.33;;;;;;;6.53;66.69;101643.13;126258;1099;104345;-81
2021/10/04 04:16:40;;;;;;;27.93;13.37;;;;;;;6.50;66.66;101651.66;126141;1099;104137;-81
2021/10/04 04:19:10;;;;;;;27.23;13.43;;;;;;;6.43;66.84;101654.62;126231;1099;104155;-81
2021/10/04 04:21:42;;;;;;;27.30;13.17;;;;;;;6.35;67.00;101651.47;126351;1099;104159;-81
2021/10/04 04:24:16;;;;;;;29.57;14.77;;;;;;;6.36;66.77;101655.89;126363;1099;104165;-82
2021/10/04 04:26:50;;;;;;;26.77;13.77;;;;;;;6.34;67.37;101657.47;126299;1098;104149;-81
2021/10/04 04:29:22;;;;;;;27.87;14.87;;;;;;;6.32;67.06;101664.28;126323;1099;104162;-81
2021/10/04 04:31:53;;;;;;;30.00;14.80;;;;;;;6.33;67.13;101673.92;126294;1099;104194;-81
2021/10/04 04:34:24;;;;;;;34.63;15.70;;;;;;;6.38;66.99;101669.94;126239;1099;102152;-81
2021/10/04 04:36:54;;;;;;;27.23;14.47;;;;;;;6.44;67.05;101675.59;126339;1099;104153;-80
2021/10/04 04:39:26;;;;;;;30.20;14.63;;;;;;;6.48;67.33;101679.30;126267;1099;102239;-81
2021/10/04 04:41:59;;;;;;;30.07;15.40;;;;;;;6.50;67.26;101685.56;126316;1099;104229;-81
2021/10/04 04:44:30;;;;;;;32.23;14.97;;;;;;;6.50;67.10;101687.23;126288;1099;104201;-81
2021/10/04 04:47:02;;;;;;;32.50;15.47;;;;;;;6.46;67.26;101694.84;126205;1099;105264;-81
2021/10/04 04:49:33;;;;;;;27.83;14.17;;;;;;;6.45;67.21;101689.52;126060;1099;104290;-81
2021/10/04 04:52:04;;;;;;;30.23;14.97;;;;;;;6.44;67.45;101685.13;126134;1099;104293;-79
2021/10/04 04:54:34;;;;;;;32.93;14.70;;;;;;;6.47;67.31;101686.23;126229;1099;104326;-79
2021/10/04 04:57:06;;;;;;;29.97;15.23;;;;;;;6.50;67.67;101689.84;126275;1099;104213;-79
2021/10/04 04:59:36;;;;;;;32.03;15.93;;;;;;;6.53;67.68;101697.89;126174;1099;105697;-80
2021/10/04 05:02:07;;;;;;;32.27;15.53;;;;;;;6.50;67.55;101695.98;126237;1099;104197;-79
2021/10/04 05:04:38;;;;;;;30.67;14.33;;;;;;;6.48;67.57;101695.88;126199;1099;104217;-79
2021/10/04 05:07:09;;;;;;;31.50;14.60;;;;;;;6.46;67.51;101696.55;126063;1099;104175;-79
2021/10/04 05:09:39;;;;;;;29.90;14.13;;;;;;;6.46;67.62;101702.66;126047;1099;104143;-79
2021/10/04 05:12:10;;;;;;;29.40;15.67;;;;;;;6.55;67.96;101696.31;126176;1099;104365;-79
2021/10/04 05:14:41;;;;;;;29.00;13.33;;;;;;;6.65;67.71;101688.33;126318;1099;104280;-79
2021/10/04 05:17:13;;;;;;;35.37;14.87;;;;;;;6.78;67.64;101683.19;126260;1099;104147;-78
2021/10/04 05:19:44;;;;;;;33.03;14.60;;;;;;;6.88;67.86;101678.61;126215;1098;104165;-79
2021/10/04 05:22:15;;;;;;;30.63;16.50;;;;;;;6.97;67.67;101677.53;126248;1099;104197;-79
2021/10/04 05:24:46;;;;;;;32.67;15.50;;;;;;;7.05;67.85;101680.67;126173;1099;104651;-78
2021/10/04 05:27:19;;;;;;;30.95;14.90;;;;;;;7.14;67.77;101683.02;126216;1099;104307;-79
2021/10/04 05:29:53;;;;;;;29.70;14.67;;;;;;;7.24;68.02;101681.94;126182;1098;104415;-77
2021/10/04 05:32:25;;;;;;;33.23;15.23;;;;;;;7.36;68.17;101677.55;126210;1098;104216;-78
2021/10/04 05:34:58;;;;;;;28.27;14.30;;;;;;;7.47;68.01;101686.10;126279;1099;104251;-78
2021/10/04 05:37:29;;;;;;;;;;;;;;;7.59;67.96;101686.00;126137;1099;104150;-79
2021/10/04 05:40:06;;;;;;;30.93;15.10;;;;;;;7.66;67.51;101683.00;126064;1099;104226;-81
2021/10/04 05:42:39;;;;;;;30.00;14.27;;;;;;;7.72;67.55;101691.25;126081;1099;108758;-78
2021/10/04 05:45:16;;;;;;;32.33;14.57;;;;;;;7.77;67.56;101689.83;126224;1099;104169;-78
2021/10/04 05:47:47;;;;;;;30.70;15.35;;;;;;;7.86;67.55;101694.78;126137;1099;104223;-77
2021/10/04 05:50:28;;;;;;;30.80;15.67;;;;;;;7.91;67.93;101702.09;126097;1099;104298;-77
2021/10/04 05:56:23;;;;;;;31.73;16.20;;;;;;;8.02;67.53;101697.56;126013;1099;104191;-77
2021/10/04 05:59:04;;;;;;;35.30;15.55;;;;;;;8.14;68.01;101696.58;125782;1099;104208;-75
2021/10/04 06:01:47;;;;;;;31.57;15.93;;;;;;;8.25;67.84;101701.67;125765;1098;104320;-76
2021/10/04 06:04:33;;;;;;;34.67;16.07;;;;;;;8.35;67.76;101697.96;126107;1098;104226;-76
2021/10/04 06:07:08;;;;;;;35.73;16.53;;;;;;;8.50;67.92;101703.27;125896;1099;104182;-78
2021/10/04 06:09:42;;;;;;;34.15;16.95;;;;;;;8.62;67.74;101703.16;125916;1099;104207;-78
2021/10/04 06:12:13;;;;;;;36.47;17.17;;;;;;;8.73;67.35;101714.30;125805;1099;104153;-79
2021/10/04 06:14:45;;;;;;;34.33;17.20;;;;;;;8.82;68.00;101722.73;125956;1099;104236;-78
2021/10/04 06:17:18;;;;;;;36.38;16.95;;;;;;;8.90;67.67;101723.20;125945;1097;104171;-77
2021/10/04 06:19:52;;;;;;;37.25;18.12;;;;;;;8.92;67.04;101725.09;125830;1099;104232;-76
2021/10/04 06:22:26;;;;;;;39.83;19.20;;;;;;;8.98;67.09;101727.19;125983;1099;104196;-77
2021/10/04 06:24:57;;;;;;;35.70;17.87;;;;;;;9.09;67.13;101733.98;125979;1099;104245;-76
2021/10/04 06:27:30;;;;;;;36.73;17.10;;;;;;;9.18;67.74;101731.92;125950;1099;104175;-77
2021/10/04 06:30:04;;;;;;;35.03;16.27;;;;;;;9.29;67.18;101736.93;126126;1099;104252;-79
2021/10/04 06:32:36;;;;;;;32.00;15.40;;;;;;;9.38;67.42;101739.18;126060;1099;104155;-76
2021/10/04 06:35:09;;;;;;;34.87;16.17;;;;;;;9.47;66.81;101737.11;125986;1099;104146;-78
2021/10/04 06:37:43;;;;;;;35.05;15.83;;;;;;;9.55;67.28;101735.84;126058;1099;104283;-78
2021/10/04 06:40:26;;;;;;;35.73;16.90;;;;;;;9.64;66.86;101735.50;126160;1099;104207;-78
2021/10/04 06:43:04;;;;;;;32.23;15.97;;;;;;;9.81;66.71;101733.88;125971;1099;104353;-81
2021/10/04 06:45:37;;;;;;;34.23;15.33;;;;;;;9.98;66.59;101732.23;126155;1099;104421;-79
2021/10/04 06:48:11;;;;;;;33.43;15.70;;;;;;;10.14;67.02;101728.77;126235;1099;104627;-78
2021/10/04 06:50:44;;;;;;;30.63;16.40;;;;;;;10.26;66.50;101724.22;126125;1099;104226;-76
2021/10/04 06:53:19;;;;;;;32.83;15.88;;;;;;;10.40;66.31;101733.80;126009;1099;104241;-77
2021/10/04 06:55:51;;;;;;;39.23;16.37;;;;;;;10.57;66.40;101741.72;126138;1099;104204;-78
2021/10/04 06:58:23;;;;;;;31.27;16.40;;;;;;;10.70;66.37;101738.05;126131;1099;104184;-78
2021/10/04 07:00:56;;;;;;;34.20;17.20;;;;;;;10.84;66.15;101725.67;126211;1099;104156;-78
2021/10/04 07:03:30;;;;;;;32.00;15.48;;;;;;;10.96;65.97;101727.23;126254;1099;104318;-79
2021/10/04 07:06:08;;;;;;;30.13;15.57;;;;;;;11.09;66.21;101722.63;126157;1099;104175;-78
2021/10/04 07:08:49;;;;;;;39.03;16.33;;;;;;;11.22;66.14;101726.80;126170;1099;104265;-78
2021/10/04 07:11:25;;;;;;;31.10;14.30;;;;;;;11.35;65.62;101723.11;126193;1099;104318;-78
2021/10/04 07:14:01;;;;;;;28.87;13.47;;;;;;;11.46;65.22;101728.08;125212;1099;104998;-77
2021/10/04 07:16:37;;;;;;;27.98;13.43;;;;;;;11.56;64.91;101731.19;125292;1099;104367;-78
2021/10/04 07:19:11;;;;;;;26.93;13.23;;;;;;;11.62;64.29;101736.76;125314;1102;104181;-78
2021/10/04 07:21:51;;;;;;;27.50;13.30;;;;;;;11.65;63.89;101727.29;125244;1099;104194;-76
2021/10/04 07:24:28;;;;;;;35.07;16.40;;;;;;;11.73;64.15;101730.31;125204;1102;104281;-76
2021/10/04 07:27:04;;;;;;;29.43;14.60;;;;;;;11.79;64.37;101727.10;125201;1099;104309;-77
2021/10/04 07:29:36;;;;;;;32.30;15.20;;;;;;;11.90;64.46;101711.86;125202;1099;104309;-77
2021/10/04 07:32:10;;;;;;;27.63;11.60;;;;;;;12.09;64.06;101708.43;125121;1099;104217;-76
2021/10/04 07:34:44;;;;;;;25.07;11.47;;;;;;;12.28;63.90;101707.59;125194;1099;104194;-76
2021/10/04 07:37:17;;;;;;;27.00;12.70;;;;;;;12.45;63.81;101711.02;125200;1102;104699;-77
2021/10/04 07:39:59;;;;;;;26.70;12.27;;;;;;;12.63;63.14;101705.73;125057;1102;104245;-78
2021/10/04 07:42:33;;;;;;;25.40;11.50;;;;;;;12.80;62.97;101706.52;125213;1099;104427;-79
2021/10/04 07:45:07;;;;;;;22.87;11.70;;;;;;;12.93;62.78;101712.42;125364;1099;104169;-78
2021/10/04 07:47:40;;;;;;;29.47;11.70;;;;;;;13.02;61.83;101711.02;126249;1099;104271;-78
2021/10/04 07:50:26;;;;;;;27.07;11.30;;;;;;;13.16;61.61;101722.19;126221;1099;104201;-78
2021/10/04 07:53:00;;;;;;;26.53;12.03;;;;;;;13.34;61.55;101716.84;126216;1099;104224;-77
2021/10/04 07:55:34;;;;;;;26.05;11.40;;;;;;;13.42;60.95;101720.73;126239;1099;104242;-77
2021/10/04 07:58:09;;;;;;;25.03;11.37;;;;;;;13.52;61.26;101707.09;125283;1099;104197;-77
2021/10/04 08:00:41;;;;;;;23.80;11.20;;;;;;;13.63;60.46;101711.12;125320;1099;104146;-77
2021/10/04 08:03:16;;;;;;;23.02;11.73;;;;;;;13.69;59.66;101713.09;125391;1099;104344;-76
2021/10/04 08:05:54;;;;;;;29.07;11.63;;;;;;;13.74;60.45;101708.01;126075;1099;104153;-77
2021/10/04 08:08:29;;;;;;;25.73;11.50;;;;;;;13.77;59.75;101703.75;125360;1099;104230;-79
2021/10/04 08:11:05;;;;;;;30.67;12.47;;;;;;;13.81;60.27;101704.80;126057;1099;104140;-79
2021/10/04 08:13:38;;;;;;;26.17;11.27;;;;;;;13.82;59.66;101709.22;126133;1099;104596;-78
2021/10/04 08:16:12;;;;;;;25.27;11.87;;;;;;;13.87;59.52;101712.97;126166;1098;104200;-79
2021/10/04 08:18:47;;;;;;;27.20;11.53;;;;;;;13.94;59.61;101698.29;126234;1098;104146;-78
2021/10/04 08:21:21;;;;;;;26.87;11.17;;;;;;;14.02;59.79;101704.77;126135;1098;104101;-81
2021/10/04 08:23:56;;;;;;;31.17;13.13;;;;;;;14.05;58.21;101704.01;126327;1099;104182;-78
2021/10/04 08:26:30;;;;;;;28.03;12.07;;;;;;;14.07;59.57;101697.97;126149;1099;104149;-78
2021/10/04 08:29:04;;;;;;;25.40;12.17;;;;;;;14.10;58.59;101691.89;126340;1099;104140;-78
2021/10/04 08:31:37;;;;;;;29.60;12.17;;;;;;;14.13;57.92;101689.38;125308;1099;104382;-78
2021/10/04 08:34:12;;;;;;;28.30;11.37;;;;;;;14.22;58.83;101696.77;126238;1099;104153;-79
2021/10/04 08:36:43;;;;;;;;;;;;;;;14.26;57.09;101696.95;126205;1099;104264;-79
2021/10/04 08:39:20;;;;;;;25.20;11.27;;;;;;;14.36;57.71;101699.09;126291;1099;104145;-79
2021/10/04 08:41:55;;;;;;;22.97;11.60;;;;;;;14.43;57.67;101699.34;125365;1099;104272;-80
2021/10/04 08:44:33;;;;;;;23.23;11.40;;;;;;;14.50;57.86;101696.11;126133;1099;104166;-78
2021/10/04 08:47:08;;;;;;;24.90;11.77;;;;;;;14.55;56.83;101692.81;126127;1099;104242;-79
2021/10/04 08:49:43;;;;;;;29.10;12.10;;;;;;;14.64;56.79;101692.28;126115;1099;104179;-78
2021/10/04 08:52:14;;;;;;;29.05;12.75;;;;;;;14.74;56.65;101683.88;125418;1099;104181;-77
2021/10/04 08:54:54;;;;;;;25.50;12.17;;;;;;;14.92;56.25;101677.47;126288;1098;104240;-79
2021/10/04 08:57:31;;;;;;;29.33;12.23;;;;;;;15.07;56.80;101680.67;126052;1099;104286;-78
2021/10/04 09:00:06;;;;;;;27.15;12.43;;;;;;;15.15;56.64;101682.70;126144;1099;104203;-80
2021/10/04 09:02:40;;;;;;;30.77;12.83;;;;;;;15.24;55.87;101688.31;126109;1098;104175;-78
2021/10/04 09:05:21;;;;;;;24.93;12.40;;;;;;;15.35;56.38;101688.66;125405;1099;104283;-78
2021/10/04 09:07:59;;;;;;;27.53;12.23;;;;;;;15.47;55.38;101686.45;125192;1099;120023;-78
2021/10/04 09:10:35;;;;;;;33.45;15.55;;;;;;;15.51;54.68;101679.55;126163;1099;104188;-79
2021/10/04 09:13:13;;;;;;;46.50;20.93;;;;;;;15.46;54.42;101679.38;125230;1099;104252;-77
2021/10/04 09:15:48;;;;;;;37.67;16.10;;;;;;;15.32;53.32;101668.33;126002;1099;104172;-76
2021/10/04 09:18:27;;;;;;;33.60;13.87;;;;;;;15.32;54.01;101672.69;126098;1099;104160;-78
2021/10/04 09:21:02;;;;;;;29.60;13.67;;;;;;;15.27;54.02;101680.50;125217;1103;104156;-79
2021/10/04 09:23:36;;;;;;;27.27;12.37;;;;;;;15.25;53.92;101677.80;125260;1102;104354;-78
2021/10/04 09:26:09;;;;;;;27.80;12.67;;;;;;;15.35;54.07;101671.08;125201;1102;105524;-79
2021/10/04 09:28:45;;;;;;;27.50;11.57;;;;;;;15.48;53.56;101667.10;125260;1099;104144;-79
2021/10/04 09:31:23;;;;;;;24.70;11.60;;;;;;;15.61;53.01;101666.69;125138;1102;104156;-76
2021/10/04 09:34:10;;;;;;;27.10;11.60;;;;;;;15.74;53.11;101662.69;125170;1099;104328;-77
2021/10/04 09:36:45;;;;;;;28.97;12.03;;;;;;;15.92;53.19;101656.23;125254;1099;104681;-78
2021/10/04 09:39:26;;;;;;;26.73;12.10;;;;;;;16.07;53.00;101654.07;125265;1099;104169;-80
2021/10/04 09:42:08;;;;;;;23.30;10.63;;;;;;;16.26;53.24;101637.00;125371;1099;104479;-77
2021/10/04 09:45:02;;;;;;;24.73;11.07;;;;;;;16.49;52.86;101636.80;125357;1099;104172;-78
2021/10/04 09:47:39;;;;;;;29.27;10.53;;;;;;;16.67;52.52;101639.08;125471;1099;105621;-77
2021/10/04 09:50:12;;;;;;;25.37;10.13;;;;;;;16.77;52.93;101634.96;126101;1099;104216;-76
2021/10/04 09:52:49;;;;;;;26.07;11.00;;;;;;;16.81;52.61;101632.44;126060;1099;104191;-76
2021/10/04 09:55:28;;;;;;;22.97;10.50;;;;;;;16.87;51.71;101629.96;126233;1099;104210;-76
2021/10/04 09:58:02;;;;;;;23.87;10.00;;;;;;;16.94;51.91;101630.13;126144;1099;104191;-76
2021/10/04 10:00:38;;;;;;;27.40;11.20;;;;;;;16.97;51.87;101628.48;126275;1099;104143;-76
2021/10/04 10:03:11;;;;;;;23.83;9.73;;;;;;;17.04;51.59;101630.43;126217;1099;104213;-76
2021/10/04 10:05:47;;;;;;;24.80;9.77;;;;;;;17.00;50.66;101620.62;126264;1099;104162;-77
2021/10/04 10:08:21;;;;;;;24.35;9.70;;;;;;;16.96;50.25;101620.49;126152;1099;104175;-77
2021/10/04 10:10:57;;;;;;;23.10;10.20;;;;;;;16.93;50.18;101615.98;126119;1099;104291;-78
2021/10/04 10:13:30;;;;;;;21.67;9.17;;;;;;;16.99;50.20;101617.92;126218;1099;104206;-76
2021/10/04 10:16:10;;;;;;;23.50;9.87;;;;;;;17.07;50.15;101617.25;126046;1099;104316;-78
2021/10/04 10:18:49;;;;;;;23.73;9.00;;;;;;;17.15;49.59;101605.97;125730;1099;104248;-78
2021/10/04 10:21:24;;;;;;;21.27;8.70;;;;;;;17.30;49.30;101610.78;125968;1099;104264;-77
2021/10/04 10:24:01;;;;;;;22.60;9.07;;;;;;;17.36;49.53;101608.30;125933;1099;104172;-79
2021/10/04 10:26:51;;;;;;;22.03;8.27;;;;;;;17.43;49.57;101607.56;125918;1099;104251;-78
2021/10/04 10:29:35;;;;;;;21.73;9.57;;;;;;;17.41;48.91;101601.34;125770;1099;104169;-78
2021/10/04 10:32:16;;;;;;;17.33;8.13;;;;;;;17.43;48.97;101597.84;125907;1099;104277;-78
2021/10/04 10:34:54;;;;;;;19.17;8.53;;;;;;;17.55;48.81;101597.27;126054;1099;104174;-78
2021/10/04 10:37:29;;;;;;;16.37;7.80;;;;;;;17.72;48.17;101596.78;126054;1099;104278;-77
2021/10/04 10:40:10;;;;;;;20.90;8.33;;;;;;;17.88;48.38;101590.07;126118;1099;118458;-77
2021/10/04 10:43:00;;;;;;;22.33;8.67;;;;;;;17.99;47.99;101591.23;126013;1099;104386;-77
2021/10/04 10:45:43;;;;;;;15.90;7.67;;;;;;;18.11;46.83;101590.63;126032;1099;104214;-78
2021/10/04 10:48:18;;;;;;;16.87;7.90;;;;;;;18.11;46.51;101585.31;126203;1098;104243;-78
2021/10/04 10:50:52;;;;;;;16.17;6.97;;;;;;;18.11;46.72;101580.00;126220;1099;104239;-79
2021/10/04 10:53:34;;;;;;;18.33;7.50;;;;;;;18.13;46.68;101576.50;126137;1099;104274;-78
2021/10/04 10:56:09;;;;;;;17.53;7.07;;;;;;;18.13;46.83;101567.64;126088;1099;104424;-78
2021/10/04 10:58:49;;;;;;;17.70;7.60;;;;;;;18.19;46.78;101575.74;125138;1099;104264;-79
2021/10/04 11:01:35;;;;;;;17.20;6.90;;;;;;;18.28;46.87;101569.74;125161;1100;104200;-78
2021/10/04 11:04:08;;;;;;;15.57;6.73;;;;;;;18.37;46.74;101571.67;125254;1099;104318;-78
2021/10/04 11:06:50;;;;;;;19.57;6.60;;;;;;;18.41;46.47;101570.88;125176;1102;104217;-78
2021/10/04 11:09:51;;;;;;;17.10;6.60;;;;;;;18.46;46.32;101569.20;125085;1102;104309;-78
2021/10/04 11:12:23;;;;;;;19.60;6.97;;;;;;;18.48;46.06;101567.47;125141;1102;104185;-75
2021/10/04 11:14:59;;;;;;;15.77;6.73;;;;;;;18.46;45.77;101562.13;125203;1102;104184;-76
2021/10/04 11:17:59;;;;;;;24.50;7.10;;;;;;;18.41;45.77;101560.26;125133;1100;104393;-78
2021/10/04 11:20:32;;;;;;;20.03;7.03;;;;;;;18.39;45.64;101556.68;125222;1102;104159;-76
2021/10/04 11:23:11;;;;;;;16.63;6.67;;;;;;;18.33;45.15;101552.13;125079;1102;104358;-77
2021/10/04 11:25:46;;;;;;;15.90;6.40;;;;;;;18.32;44.51;101552.98;125224;1102;104201;-78
2021/10/04 11:28:39;;;;;;;16.23;6.30;;;;;;;18.40;45.01;101547.83;125263;1102;104175;-76
2021/10/04 11:31:13;;;;;;;15.63;6.60;;;;;;;18.41;44.53;101544.31;125204;1099;104431;-76
2021/10/04 11:33:52;;;;;;;12.18;6.28;;;;;;;18.42;44.60;101543.45;125192;1099;104312;-78
2021/10/04 11:36:26;;;;;;;17.37;6.57;;;;;;;18.47;44.76;101540.01;125114;1099;105732;-78